sensor_id;sensor_type;location;lat;lon;timestamp;temperature;humidity
12384;DHT22;6256;63.808;20.336;2023-02-19T00:01:16;0.00;99.90
12384;DHT22;6256;63.808;20.336;2023-02-19T00:03:46;0.10;99.90
12384;DHT22;6256;63.808;20.336;2023-02-19T00:06:12;0.10;99.90
12384;DHT22;6256;63.808;20.336;2023-02-19T00:08:38;0.00;99.90
12384;DHT22;6256;63.808;20.336;2023-02-19T00:11:11;0.10;99.90
12384;DHT22;6256;63.808;20.336;2023-02-19T00:13:41;0.10;99.90
12384;DHT22;6256;63.808;20.336;2023-02-19T00:16:10;0.10;99.90
12384;DHT22;6256;63.808;20.336;2023-02-19T00:18:37;0.10;99.90
12384;DHT22;6256;63.808;20.336;2023-02-19T00:21:05;0.00;99.90
12384;DHT22;6256;63.808;20.336;2023-02-19T00:23:31;0.00;99.90
12384;DHT22;6256;63.808;20.336;2023-02-19T00:26:02;0.00;99.90
12384;DHT22;6256;63.808;20.336;2023-02-19T00:28:30;0.00;99.90
12384;DHT22;6256;63.808;20.336;2023-02-19T00:31:03;0.00;99.90
12384;DHT22;6256;63.808;20.336;2023-02-19T00:33:29;0.00;99.90
12384;DHT22;6256;63.808;20.336;2023-02-19T00:35:59;0.00;99.90
12384;DHT22;6256;63.808;20.336;2023-02-19T00:38:24;0.00;99.90
12384;DHT22;6256;63.808;20.336;2023-02-19T00:40:50;0.00;99.90
12384;DHT22;6256;63.808;20.336;2023-02-19T00:43:17;0.00;99.90
12384;DHT22;6256;63.808;20.336;2023-02-19T00:45:43;0.00;99.90
12384;DHT22;6256;63.808;20.336;2023-02-19T00:48:11;0.00;99.90
12384;DHT22;6256;63.808;20.336;2023-02-19T00:50:37;0.00;99.90
12384;DHT22;6256;63.808;20.336;2023-02-19T00:53:03;0.00;99.90
12384;DHT22;6256;63.808;20.336;2023-02-19T00:55:28;0.00;99.90
12384;DHT22;6256;63.808;20.336;2023-02-19T00:57:54;0.10;99.90
12384;DHT22;6256;63.808;20.336;2023-02-19T01:00:20;0.00;99.90
12384;DHT22;6256;63.808;20.336;2023-02-19T01:02:45;-0.10;99.90
12384;DHT22;6256;63.808;20.336;2023-02-19T01:05:11;-0.10;99.90
12384;DHT22;6256;63.808;20.336;2023-02-19T01:07:37;-0.10;99.90
12384;DHT22;6256;63.808;20.336;2023-02-19T01:10:05;-0.10;99.90
12384;DHT22;6256;63.808;20.336;2023-02-19T01:12:31;-0.10;99.90
12384;DHT22;6256;63.808;20.336;2023-02-19T01:14:57;-0.10;99.90
12384;DHT22;6256;63.808;20.336;2023-02-19T01:17:23;0.00;99.90
12384;DHT22;6256;63.808;20.336;2023-02-19T01:19:48;0.00;99.90
12384;DHT22;6256;63.808;20.336;2023-02-19T01:22:14;0.00;99.90
12384;DHT22;6256;63.808;20.336;2023-02-19T01:24:40;-0.10;99.90
12384;DHT22;6256;63.808;20.336;2023-02-19T01:27:06;-0.10;99.90
12384;DHT22;6256;63.808;20.336;2023-02-19T01:29:31;-0.10;99.90
12384;DHT22;6256;63.808;20.336;2023-02-19T01:32:00;-0.10;99.90
12384;DHT22;6256;63.808;20.336;2023-02-19T01:34:26;-0.10;99.90
12384;DHT22;6256;63.808;20.336;2023-02-19T01:36:55;-0.10;99.90
12384;DHT22;6256;63.808;20.336;2023-02-19T01:39:21;-0.10;99.90
12384;DHT22;6256;63.808;20.336;2023-02-19T01:41:46;-0.10;99.90
12384;DHT22;6256;63.808;20.336;2023-02-19T01:46:44;-0.10;99.90
12384;DHT22;6256;63.808;20.336;2023-02-19T01:49:30;-0.10;99.90
12384;DHT22;6256;63.808;20.336;2023-02-19T01:52:15;-0.20;99.90
12384;DHT22;6256;63.808;20.336;2023-02-19T01:54:43;-0.10;99.90
12384;DHT22;6256;63.808;20.336;2023-02-19T01:57:18;-0.10;99.90
12384;DHT22;6256;63.808;20.336;2023-02-19T01:59:46;-0.20;99.90
12384;DHT22;6256;63.808;20.336;2023-02-19T02:02:12;-0.20;99.90
12384;DHT22;6256;63.808;20.336;2023-02-19T02:04:38;-0.20;99.90
12384;DHT22;6256;63.808;20.336;2023-02-19T02:07:05;-0.10;99.90
12384;DHT22;6256;63.808;20.336;2023-02-19T02:09:54;-0.20;99.90
12384;DHT22;6256;63.808;20.336;2023-02-19T02:12:38;-0.10;99.90
12384;DHT22;6256;63.808;20.336;2023-02-19T02:15:05;-0.20;99.90
12384;DHT22;6256;63.808;20.336;2023-02-19T02:17:56;-0.10;99.90
12384;DHT22;6256;63.808;20.336;2023-02-19T02:31:59;-0.10;99.90
12384;DHT22;6256;63.808;20.336;2023-02-19T02:34:36;-0.20;99.90
12384;DHT22;6256;63.808;20.336;2023-02-19T02:37:06;-0.20;99.90
12384;DHT22;6256;63.808;20.336;2023-02-19T02:39:35;-0.20;99.90
12384;DHT22;6256;63.808;20.336;2023-02-19T02:42:02;-0.10;99.90
12384;DHT22;6256;63.808;20.336;2023-02-19T02:44:47;-0.10;99.90
12384;DHT22;6256;63.808;20.336;2023-02-19T02:47:35;-0.20;99.90
12384;DHT22;6256;63.808;20.336;2023-02-19T02:50:24;-0.20;99.90
12384;DHT22;6256;63.808;20.336;2023-02-19T02:52:54;-0.20;99.90
12384;DHT22;6256;63.808;20.336;2023-02-19T02:55:42;-0.30;99.90
12384;DHT22;6256;63.808;20.336;2023-02-19T02:58:10;-0.20;99.90
12384;DHT22;6256;63.808;20.336;2023-02-19T03:00:37;-0.20;99.90
12384;DHT22;6256;63.808;20.336;2023-02-19T03:03:24;-0.20;99.90
12384;DHT22;6256;63.808;20.336;2023-02-19T03:05:53;-0.20;99.90
12384;DHT22;6256;63.808;20.336;2023-02-19T03:11:11;-0.20;99.90
12384;DHT22;6256;63.808;20.336;2023-02-19T03:14:19;-0.20;99.90
12384;DHT22;6256;63.808;20.336;2023-02-19T03:17:20;-0.20;99.90
12384;DHT22;6256;63.808;20.336;2023-02-19T03:20:09;-0.20;99.90
12384;DHT22;6256;63.808;20.336;2023-02-19T03:22:37;-0.30;99.90
12384;DHT22;6256;63.808;20.336;2023-02-19T03:25:10;-0.20;99.90
12384;DHT22;6256;63.808;20.336;2023-02-19T03:27:57;-0.20;99.90
12384;DHT22;6256;63.808;20.336;2023-02-19T03:30:28;-0.20;99.90
12384;DHT22;6256;63.808;20.336;2023-02-19T03:33:41;-0.20;99.90
12384;DHT22;6256;63.808;20.336;2023-02-19T03:35:56;-0.20;99.90
12384;DHT22;6256;63.808;20.336;2023-02-19T03:38:43;-0.30;99.90
12384;DHT22;6256;63.808;20.336;2023-02-19T03:43:52;-0.20;99.90
12384;DHT22;6256;63.808;20.336;2023-02-19T03:46:32;-0.20;99.90
12384;DHT22;6256;63.808;20.336;2023-02-19T03:49:23;-0.20;99.90
12384;DHT22;6256;63.808;20.336;2023-02-19T03:59:51;-0.30;99.90
12384;DHT22;6256;63.808;20.336;2023-02-19T04:05:10;-0.30;99.90
12384;DHT22;6256;63.808;20.336;2023-02-19T04:07:43;-0.30;99.90
12384;DHT22;6256;63.808;20.336;2023-02-19T04:10:10;-0.30;99.90
12384;DHT22;6256;63.808;20.336;2023-02-19T04:12:39;-0.40;99.90
12384;DHT22;6256;63.808;20.336;2023-02-19T04:15:10;-0.40;99.90
12384;DHT22;6256;63.808;20.336;2023-02-19T04:17:46;-0.40;99.90
12384;DHT22;6256;63.808;20.336;2023-02-19T04:20:17;-0.40;99.90
12384;DHT22;6256;63.808;20.336;2023-02-19T04:22:44;-0.40;99.90
12384;DHT22;6256;63.808;20.336;2023-02-19T04:25:10;-0.40;99.90
12384;DHT22;6256;63.808;20.336;2023-02-19T04:27:37;-0.40;99.90
12384;DHT22;6256;63.808;20.336;2023-02-19T04:30:09;-0.40;99.90
12384;DHT22;6256;63.808;20.336;2023-02-19T04:32:36;-0.40;99.90
12384;DHT22;6256;63.808;20.336;2023-02-19T04:35:01;-0.40;99.90
12384;DHT22;6256;63.808;20.336;2023-02-19T04:37:27;-0.50;99.90
12384;DHT22;6256;63.808;20.336;2023-02-19T04:39:53;-0.40;99.90
12384;DHT22;6256;63.808;20.336;2023-02-19T04:42:18;-0.50;99.90
12384;DHT22;6256;63.808;20.336;2023-02-19T04:44:44;-0.40;99.90
12384;DHT22;6256;63.808;20.336;2023-02-19T04:47:10;-0.40;99.90
12384;DHT22;6256;63.808;20.336;2023-02-19T04:49:35;-0.40;99.90
12384;DHT22;6256;63.808;20.336;2023-02-19T04:52:01;-0.40;99.90
12384;DHT22;6256;63.808;20.336;2023-02-19T04:54:27;-0.50;99.90
12384;DHT22;6256;63.808;20.336;2023-02-19T04:56:53;-0.40;99.90
12384;DHT22;6256;63.808;20.336;2023-02-19T04:59:18;-0.40;99.90
12384;DHT22;6256;63.808;20.336;2023-02-19T05:01:44;-0.50;99.90
12384;DHT22;6256;63.808;20.336;2023-02-19T05:04:10;-0.50;99.90
12384;DHT22;6256;63.808;20.336;2023-02-19T05:06:35;-0.50;99.90
12384;DHT22;6256;63.808;20.336;2023-02-19T05:09:02;-0.40;99.90
12384;DHT22;6256;63.808;20.336;2023-02-19T05:11:28;-0.50;99.90
12384;DHT22;6256;63.808;20.336;2023-02-19T05:13:54;-0.50;99.90
12384;DHT22;6256;63.808;20.336;2023-02-19T05:16:20;-0.50;99.90
12384;DHT22;6256;63.808;20.336;2023-02-19T05:18:46;-0.50;99.90
12384;DHT22;6256;63.808;20.336;2023-02-19T05:21:13;-0.50;99.90
12384;DHT22;6256;63.808;20.336;2023-02-19T05:23:39;-0.50;99.90
12384;DHT22;6256;63.808;20.336;2023-02-19T05:26:07;-0.50;99.90
12384;DHT22;6256;63.808;20.336;2023-02-19T05:28:33;-0.60;99.90
12384;DHT22;6256;63.808;20.336;2023-02-19T05:31:04;-0.60;99.90
12384;DHT22;6256;63.808;20.336;2023-02-19T05:33:29;-0.60;99.90
12384;DHT22;6256;63.808;20.336;2023-02-19T05:35:55;-0.60;99.90
12384;DHT22;6256;63.808;20.336;2023-02-19T05:38:22;-0.60;99.90
12384;DHT22;6256;63.808;20.336;2023-02-19T05:40:47;-0.60;99.90
12384;DHT22;6256;63.808;20.336;2023-02-19T05:43:13;-0.60;99.90
12384;DHT22;6256;63.808;20.336;2023-02-19T05:45:40;-0.60;99.90
12384;DHT22;6256;63.808;20.336;2023-02-19T05:48:06;-0.60;99.90
12384;DHT22;6256;63.808;20.336;2023-02-19T05:50:33;-0.60;99.90
12384;DHT22;6256;63.808;20.336;2023-02-19T05:53:00;-0.60;99.90
12384;DHT22;6256;63.808;20.336;2023-02-19T05:55:27;-0.60;99.90
12384;DHT22;6256;63.808;20.336;2023-02-19T05:57:53;-0.60;99.90
12384;DHT22;6256;63.808;20.336;2023-02-19T06:00:20;-0.60;99.90
12384;DHT22;6256;63.808;20.336;2023-02-19T06:02:46;-0.60;99.90
12384;DHT22;6256;63.808;20.336;2023-02-19T06:05:12;-0.60;99.90
12384;DHT22;6256;63.808;20.336;2023-02-19T06:07:37;-0.60;99.90
12384;DHT22;6256;63.808;20.336;2023-02-19T06:10:05;-0.60;99.90
12384;DHT22;6256;63.808;20.336;2023-02-19T06:12:31;-0.60;99.90
12384;DHT22;6256;63.808;20.336;2023-02-19T06:14:57;-0.60;99.90
12384;DHT22;6256;63.808;20.336;2023-02-19T06:17:23;-0.50;99.90
12384;DHT22;6256;63.808;20.336;2023-02-19T06:19:48;-0.50;99.90
12384;DHT22;6256;63.808;20.336;2023-02-19T06:22:15;-0.50;99.90
12384;DHT22;6256;63.808;20.336;2023-02-19T06:24:41;-0.50;99.90
12384;DHT22;6256;63.808;20.336;2023-02-19T06:27:09;-0.50;99.90
12384;DHT22;6256;63.808;20.336;2023-02-19T06:29:34;-0.50;99.90
12384;DHT22;6256;63.808;20.336;2023-02-19T06:32:04;-0.50;99.90
12384;DHT22;6256;63.808;20.336;2023-02-19T06:34:30;-0.50;99.90
12384;DHT22;6256;63.808;20.336;2023-02-19T06:36:56;-0.50;99.90
12384;DHT22;6256;63.808;20.336;2023-02-19T06:39:22;-0.50;99.90
12384;DHT22;6256;63.808;20.336;2023-02-19T06:41:47;-0.50;99.90
12384;DHT22;6256;63.808;20.336;2023-02-19T06:44:13;-0.50;99.90
12384;DHT22;6256;63.808;20.336;2023-02-19T06:46:39;-0.50;99.90
12384;DHT22;6256;63.808;20.336;2023-02-19T06:49:05;-0.50;99.90
12384;DHT22;6256;63.808;20.336;2023-02-19T06:51:30;-0.50;99.90
12384;DHT22;6256;63.808;20.336;2023-02-19T06:54:03;-0.50;99.90
12384;DHT22;6256;63.808;20.336;2023-02-19T06:56:34;-0.50;99.90
12384;DHT22;6256;63.808;20.336;2023-02-19T06:59:08;-0.50;99.90
12384;DHT22;6256;63.808;20.336;2023-02-19T07:01:35;-0.50;99.90
12384;DHT22;6256;63.808;20.336;2023-02-19T07:04:02;-0.50;99.90
12384;DHT22;6256;63.808;20.336;2023-02-19T07:06:44;-0.40;99.90
12384;DHT22;6256;63.808;20.336;2023-02-19T07:09:10;-0.40;99.90
12384;DHT22;6256;63.808;20.336;2023-02-19T07:11:39;-0.40;99.90
12384;DHT22;6256;63.808;20.336;2023-02-19T07:14:14;-0.40;99.90
12384;DHT22;6256;63.808;20.336;2023-02-19T07:16:43;-0.30;99.90
12384;DHT22;6256;63.808;20.336;2023-02-19T07:19:09;-0.30;99.90
12384;DHT22;6256;63.808;20.336;2023-02-19T07:21:38;-0.30;99.90
12384;DHT22;6256;63.808;20.336;2023-02-19T07:24:08;-0.30;99.90
12384;DHT22;6256;63.808;20.336;2023-02-19T07:26:34;-0.30;99.90
12384;DHT22;6256;63.808;20.336;2023-02-19T07:29:03;-0.30;99.90
12384;DHT22;6256;63.808;20.336;2023-02-19T07:31:29;-0.30;99.90
12384;DHT22;6256;63.808;20.336;2023-02-19T07:33:54;-0.30;99.90
12384;DHT22;6256;63.808;20.336;2023-02-19T07:36:22;-0.30;99.90
12384;DHT22;6256;63.808;20.336;2023-02-19T07:38:55;-0.30;99.90
12384;DHT22;6256;63.808;20.336;2023-02-19T07:41:21;-0.20;99.90
12384;DHT22;6256;63.808;20.336;2023-02-19T07:43:47;-0.20;99.90
12384;DHT22;6256;63.808;20.336;2023-02-19T07:46:13;-0.20;99.90
12384;DHT22;6256;63.808;20.336;2023-02-19T07:48:40;-0.20;99.90
12384;DHT22;6256;63.808;20.336;2023-02-19T07:51:09;-0.20;99.90
12384;DHT22;6256;63.808;20.336;2023-02-19T07:53:35;-0.20;99.90
12384;DHT22;6256;63.808;20.336;2023-02-19T07:56:02;-0.20;99.90
12384;DHT22;6256;63.808;20.336;2023-02-19T07:58:28;-0.10;99.90
12384;DHT22;6256;63.808;20.336;2023-02-19T08:00:54;-0.10;99.90
12384;DHT22;6256;63.808;20.336;2023-02-19T08:03:20;-0.10;99.90
12384;DHT22;6256;63.808;20.336;2023-02-19T08:05:45;-0.10;99.90
12384;DHT22;6256;63.808;20.336;2023-02-19T08:08:16;0.00;99.90
12384;DHT22;6256;63.808;20.336;2023-02-19T08:10:42;0.00;99.90
12384;DHT22;6256;63.808;20.336;2023-02-19T08:13:28;0.00;99.90
12384;DHT22;6256;63.808;20.336;2023-02-19T08:18:27;0.10;99.90
12384;DHT22;6256;63.808;20.336;2023-02-19T08:20:54;0.10;99.90
12384;DHT22;6256;63.808;20.336;2023-02-19T08:23:20;0.30;99.90
12384;DHT22;6256;63.808;20.336;2023-02-19T08:25:47;0.20;99.90
12384;DHT22;6256;63.808;20.336;2023-02-19T08:28:12;0.20;99.90
12384;DHT22;6256;63.808;20.336;2023-02-19T08:30:40;0.20;99.90
12384;DHT22;6256;63.808;20.336;2023-02-19T08:33:07;0.30;99.90
12384;DHT22;6256;63.808;20.336;2023-02-19T08:35:35;0.30;99.90
12384;DHT22;6256;63.808;20.336;2023-02-19T08:38:01;0.30;99.90
12384;DHT22;6256;63.808;20.336;2023-02-19T08:40:28;0.30;99.90
12384;DHT22;6256;63.808;20.336;2023-02-19T08:42:54;0.40;99.90
12384;DHT22;6256;63.808;20.336;2023-02-19T08:45:20;0.40;99.90
12384;DHT22;6256;63.808;20.336;2023-02-19T08:47:45;0.50;99.90
12384;DHT22;6256;63.808;20.336;2023-02-19T08:50:11;0.50;99.90
12384;DHT22;6256;63.808;20.336;2023-02-19T08:52:37;0.40;99.90
12384;DHT22;6256;63.808;20.336;2023-02-19T08:55:04;0.40;99.90
12384;DHT22;6256;63.808;20.336;2023-02-19T08:57:30;0.50;99.90
12384;DHT22;6256;63.808;20.336;2023-02-19T08:59:56;0.50;99.90
12384;DHT22;6256;63.808;20.336;2023-02-19T09:02:22;0.50;99.90
12384;DHT22;6256;63.808;20.336;2023-02-19T09:04:48;0.50;99.90
12384;DHT22;6256;63.808;20.336;2023-02-19T09:07:14;0.50;99.90
12384;DHT22;6256;63.808;20.336;2023-02-19T09:09:40;0.50;99.90
12384;DHT22;6256;63.808;20.336;2023-02-19T09:12:08;0.60;99.90
12384;DHT22;6256;63.808;20.336;2023-02-19T09:14:34;0.60;99.90
12384;DHT22;6256;63.808;20.336;2023-02-19T09:17:01;0.60;99.90
12384;DHT22;6256;63.808;20.336;2023-02-19T09:19:28;0.60;99.90
12384;DHT22;6256;63.808;20.336;2023-02-19T09:21:53;0.50;99.90
12384;DHT22;6256;63.808;20.336;2023-02-19T09:24:19;0.60;99.90
12384;DHT22;6256;63.808;20.336;2023-02-19T09:26:48;0.70;99.90
12384;DHT22;6256;63.808;20.336;2023-02-19T09:29:15;0.70;99.90
12384;DHT22;6256;63.808;20.336;2023-02-19T09:31:40;0.80;99.90
12384;DHT22;6256;63.808;20.336;2023-02-19T09:34:06;0.80;99.90
12384;DHT22;6256;63.808;20.336;2023-02-19T09:36:35;0.90;99.90
12384;DHT22;6256;63.808;20.336;2023-02-19T09:39:00;0.90;99.90
12384;DHT22;6256;63.808;20.336;2023-02-19T09:41:31;1.00;99.90
12384;DHT22;6256;63.808;20.336;2023-02-19T09:43:59;1.10;99.90
12384;DHT22;6256;63.808;20.336;2023-02-19T09:49:00;1.40;99.90
12384;DHT22;6256;63.808;20.336;2023-02-19T09:51:28;1.40;99.90
12384;DHT22;6256;63.808;20.336;2023-02-19T09:53:56;1.30;99.90
12384;DHT22;6256;63.808;20.336;2023-02-19T09:56:24;1.40;99.90
12384;DHT22;6256;63.808;20.336;2023-02-19T09:58:53;1.40;99.90
12384;DHT22;6256;63.808;20.336;2023-02-19T10:01:21;1.30;99.90
12384;DHT22;6256;63.808;20.336;2023-02-19T10:03:48;1.40;99.90
12384;DHT22;6256;63.808;20.336;2023-02-19T10:06:26;1.30;99.90
12384;DHT22;6256;63.808;20.336;2023-02-19T10:09:22;1.10;99.90
12384;DHT22;6256;63.808;20.336;2023-02-19T10:11:53;1.00;99.90
12384;DHT22;6256;63.808;20.336;2023-02-19T10:17:29;1.10;99.90
12384;DHT22;6256;63.808;20.336;2023-02-19T10:19:56;1.20;99.90
12384;DHT22;6256;63.808;20.336;2023-02-19T10:22:23;1.20;99.90
12384;DHT22;6256;63.808;20.336;2023-02-19T10:24:52;1.20;99.90
12384;DHT22;6256;63.808;20.336;2023-02-19T10:27:19;1.20;99.90
12384;DHT22;6256;63.808;20.336;2023-02-19T10:29:46;1.30;99.90
12384;DHT22;6256;63.808;20.336;2023-02-19T10:32:18;1.30;99.90
12384;DHT22;6256;63.808;20.336;2023-02-19T10:34:46;1.30;99.90
12384;DHT22;6256;63.808;20.336;2023-02-19T10:37:15;1.30;99.90
12384;DHT22;6256;63.808;20.336;2023-02-19T10:39:49;1.40;99.90
12384;DHT22;6256;63.808;20.336;2023-02-19T10:42:20;1.30;99.90
12384;DHT22;6256;63.808;20.336;2023-02-19T10:44:52;1.30;99.90
12384;DHT22;6256;63.808;20.336;2023-02-19T10:47:22;1.20;99.90
12384;DHT22;6256;63.808;20.336;2023-02-19T10:49:51;1.20;99.90
12384;DHT22;6256;63.808;20.336;2023-02-19T10:52:21;1.20;99.90
12384;DHT22;6256;63.808;20.336;2023-02-19T10:57:40;1.10;99.90
12384;DHT22;6256;63.808;20.336;2023-02-19T11:02:42;0.90;99.90
12384;DHT22;6256;63.808;20.336;2023-02-19T11:07:38;1.00;99.90
12384;DHT22;6256;63.808;20.336;2023-02-19T11:10:24;0.90;99.90
12384;DHT22;6256;63.808;20.336;2023-02-19T11:12:52;1.00;99.90
12384;DHT22;6256;63.808;20.336;2023-02-19T11:15:30;1.10;99.90
12384;DHT22;6256;63.808;20.336;2023-02-19T11:20:59;1.10;99.90
12384;DHT22;6256;63.808;20.336;2023-02-19T11:23:29;1.20;99.90
12384;DHT22;6256;63.808;20.336;2023-02-19T11:25:58;1.30;99.90
12384;DHT22;6256;63.808;20.336;2023-02-19T11:28:36;1.40;99.90
12384;DHT22;6256;63.808;20.336;2023-02-19T11:36:38;1.50;99.90
12384;DHT22;6256;63.808;20.336;2023-02-19T11:54:52;1.90;99.90
12384;DHT22;6256;63.808;20.336;2023-02-19T12:00:20;2.00;99.90
12384;DHT22;6256;63.808;20.336;2023-02-19T12:11:00;2.10;99.90
12384;DHT22;6256;63.808;20.336;2023-02-19T12:16:24;2.00;99.90
12384;DHT22;6256;63.808;20.336;2023-02-19T12:19:33;2.00;99.90
12384;DHT22;6256;63.808;20.336;2023-02-19T12:22:30;2.10;99.90
12384;DHT22;6256;63.808;20.336;2023-02-19T12:28:12;2.10;99.90
12384;DHT22;6256;63.808;20.336;2023-02-19T12:39:44;1.80;99.90
12384;DHT22;6256;63.808;20.336;2023-02-19T12:42:51;1.80;99.90
12384;DHT22;6256;63.808;20.336;2023-02-19T12:48:28;1.70;99.90
12384;DHT22;6256;63.808;20.336;2023-02-19T12:50:58;1.60;99.90
12384;DHT22;6256;63.808;20.336;2023-02-19T12:56:18;1.20;99.90
12384;DHT22;6256;63.808;20.336;2023-02-19T12:58:51;0.90;99.90
12384;DHT22;6256;63.808;20.336;2023-02-19T13:01:37;0.80;99.90
12384;DHT22;6256;63.808;20.336;2023-02-19T13:04:28;0.70;99.90
12384;DHT22;6256;63.808;20.336;2023-02-19T13:07:00;0.60;99.90
12384;DHT22;6256;63.808;20.336;2023-02-19T13:09:44;0.60;99.90
12384;DHT22;6256;63.808;20.336;2023-02-19T13:12:23;0.50;99.90
12384;DHT22;6256;63.808;20.336;2023-02-19T13:15:00;0.50;99.90
12384;DHT22;6256;63.808;20.336;2023-02-19T13:17:49;0.50;99.90
12384;DHT22;6256;63.808;20.336;2023-02-19T13:37:14;0.10;99.90
12384;DHT22;6256;63.808;20.336;2023-02-19T13:40:03;0.00;99.90
12384;DHT22;6256;63.808;20.336;2023-02-19T13:42:35;0.00;99.90
12384;DHT22;6256;63.808;20.336;2023-02-19T13:45:03;-0.10;99.90
12384;DHT22;6256;63.808;20.336;2023-02-19T13:47:59;-0.10;99.90
12384;DHT22;6256;63.808;20.336;2023-02-19T13:50:30;-0.20;99.90
12384;DHT22;6256;63.808;20.336;2023-02-19T13:52:57;-0.20;99.90
12384;DHT22;6256;63.808;20.336;2023-02-19T13:58:52;-0.20;99.90
12384;DHT22;6256;63.808;20.336;2023-02-19T14:01:18;-0.20;99.90
12384;DHT22;6256;63.808;20.336;2023-02-19T14:03:46;-0.20;99.90
12384;DHT22;6256;63.808;20.336;2023-02-19T14:06:12;-0.20;99.90
12384;DHT22;6256;63.808;20.336;2023-02-19T14:08:56;-0.20;99.90
12384;DHT22;6256;63.808;20.336;2023-02-19T14:14:26;-0.40;99.90
12384;DHT22;6256;63.808;20.336;2023-02-19T14:16:57;-0.50;99.90
12384;DHT22;6256;63.808;20.336;2023-02-19T14:19:48;-0.50;99.90
12384;DHT22;6256;63.808;20.336;2023-02-19T14:25:23;-0.60;99.90
12384;DHT22;6256;63.808;20.336;2023-02-19T14:28:15;-0.60;99.90
12384;DHT22;6256;63.808;20.336;2023-02-19T14:33:31;-0.60;99.90
12384;DHT22;6256;63.808;20.336;2023-02-19T14:39:17;-0.50;99.90
12384;DHT22;6256;63.808;20.336;2023-02-19T14:41:52;-0.50;99.90
12384;DHT22;6256;63.808;20.336;2023-02-19T14:44:22;-0.40;99.90
12384;DHT22;6256;63.808;20.336;2023-02-19T14:49:47;-0.50;99.90
12384;DHT22;6256;63.808;20.336;2023-02-19T14:52:35;-0.50;99.90
12384;DHT22;6256;63.808;20.336;2023-02-19T14:55:22;-0.60;99.90
12384;DHT22;6256;63.808;20.336;2023-02-19T14:57:52;-0.70;99.90
12384;DHT22;6256;63.808;20.336;2023-02-19T15:02:49;-1.00;99.90
12384;DHT22;6256;63.808;20.336;2023-02-19T15:05:23;-1.10;99.90
12384;DHT22;6256;63.808;20.336;2023-02-19T15:07:54;-1.30;99.90
12384;DHT22;6256;63.808;20.336;2023-02-19T15:10:21;-1.40;99.90
12384;DHT22;6256;63.808;20.336;2023-02-19T15:12:51;-1.50;99.90
12384;DHT22;6256;63.808;20.336;2023-02-19T15:15:24;-1.60;99.90
12384;DHT22;6256;63.808;20.336;2023-02-19T15:17:52;-1.70;99.90
12384;DHT22;6256;63.808;20.336;2023-02-19T15:20:23;-1.70;99.90
12384;DHT22;6256;63.808;20.336;2023-02-19T15:22:51;-1.80;99.90
12384;DHT22;6256;63.808;20.336;2023-02-19T15:25:19;-1.90;99.90
12384;DHT22;6256;63.808;20.336;2023-02-19T15:27:46;-2.00;99.90
12384;DHT22;6256;63.808;20.336;2023-02-19T15:30:38;-2.00;99.90
12384;DHT22;6256;63.808;20.336;2023-02-19T15:33:18;-2.10;99.90
12384;DHT22;6256;63.808;20.336;2023-02-19T15:35:54;-2.20;99.90
12384;DHT22;6256;63.808;20.336;2023-02-19T15:38:21;-2.20;99.90
12384;DHT22;6256;63.808;20.336;2023-02-19T15:40:48;-2.20;99.90
12384;DHT22;6256;63.808;20.336;2023-02-19T15:46:02;-2.10;99.90
12384;DHT22;6256;63.808;20.336;2023-02-19T15:48:54;-2.10;99.90
12384;DHT22;6256;63.808;20.336;2023-02-19T15:51:27;-2.10;99.90
12384;DHT22;6256;63.808;20.336;2023-02-19T15:53:58;-2.00;99.90
12384;DHT22;6256;63.808;20.336;2023-02-19T15:56:33;-2.00;99.90
12384;DHT22;6256;63.808;20.336;2023-02-19T15:59:03;-2.00;99.90
12384;DHT22;6256;63.808;20.336;2023-02-19T16:01:37;-1.90;99.90
12384;DHT22;6256;63.808;20.336;2023-02-19T16:04:13;-1.90;99.90
12384;DHT22;6256;63.808;20.336;2023-02-19T16:06:59;-1.90;99.90
12384;DHT22;6256;63.808;20.336;2023-02-19T16:09:38;-1.90;99.90
12384;DHT22;6256;63.808;20.336;2023-02-19T16:12:21;-1.90;99.90
12384;DHT22;6256;63.808;20.336;2023-02-19T16:14:47;-1.80;99.90
12384;DHT22;6256;63.808;20.336;2023-02-19T16:17:17;-1.80;99.90
12384;DHT22;6256;63.808;20.336;2023-02-19T16:19:54;-1.80;99.90
12384;DHT22;6256;63.808;20.336;2023-02-19T16:22:27;-1.90;99.90
12384;DHT22;6256;63.808;20.336;2023-02-19T16:24:56;-1.90;99.90
12384;DHT22;6256;63.808;20.336;2023-02-19T16:27:34;-1.80;99.90
12384;DHT22;6256;63.808;20.336;2023-02-19T16:30:48;-1.80;99.90
12384;DHT22;6256;63.808;20.336;2023-02-19T16:33:18;-1.80;99.90
12384;DHT22;6256;63.808;20.336;2023-02-19T16:35:44;-1.80;99.90
12384;DHT22;6256;63.808;20.336;2023-02-19T16:38:15;-1.80;99.90
12384;DHT22;6256;63.808;20.336;2023-02-19T16:45:44;-1.80;99.90
12384;DHT22;6256;63.808;20.336;2023-02-19T16:48:12;-1.80;99.90
12384;DHT22;6256;63.808;20.336;2023-02-19T16:50:39;-1.80;99.90
12384;DHT22;6256;63.808;20.336;2023-02-19T16:53:27;-1.80;99.90
12384;DHT22;6256;63.808;20.336;2023-02-19T16:55:53;-1.90;99.90
12384;DHT22;6256;63.808;20.336;2023-02-19T16:58:19;-1.90;99.90
12384;DHT22;6256;63.808;20.336;2023-02-19T17:00:45;-1.90;99.90
12384;DHT22;6256;63.808;20.336;2023-02-19T17:03:18;-1.90;99.90
12384;DHT22;6256;63.808;20.336;2023-02-19T17:05:44;-1.90;99.90
12384;DHT22;6256;63.808;20.336;2023-02-19T17:08:33;-1.80;99.90
12384;DHT22;6256;63.808;20.336;2023-02-19T17:11:01;-1.90;99.90
12384;DHT22;6256;63.808;20.336;2023-02-19T17:13:30;-1.90;99.90
12384;DHT22;6256;63.808;20.336;2023-02-19T17:15:59;-1.90;99.90
12384;DHT22;6256;63.808;20.336;2023-02-19T17:18:25;-1.90;99.90
12384;DHT22;6256;63.808;20.336;2023-02-19T17:21:00;-1.90;99.90
12384;DHT22;6256;63.808;20.336;2023-02-19T17:23:26;-1.90;99.90
12384;DHT22;6256;63.808;20.336;2023-02-19T17:25:52;-2.00;99.90
12384;DHT22;6256;63.808;20.336;2023-02-19T17:28:18;-1.90;99.90
12384;DHT22;6256;63.808;20.336;2023-02-19T17:30:44;-1.90;99.90
12384;DHT22;6256;63.808;20.336;2023-02-19T17:33:09;-1.90;99.90
12384;DHT22;6256;63.808;20.336;2023-02-19T17:35:35;-2.00;99.90
12384;DHT22;6256;63.808;20.336;2023-02-19T17:38:01;-2.00;99.90
12384;DHT22;6256;63.808;20.336;2023-02-19T17:40:34;-2.00;99.90
12384;DHT22;6256;63.808;20.336;2023-02-19T17:43:01;-1.90;99.90
12384;DHT22;6256;63.808;20.336;2023-02-19T17:45:27;-1.90;99.90
12384;DHT22;6256;63.808;20.336;2023-02-19T17:47:53;-1.90;99.90
12384;DHT22;6256;63.808;20.336;2023-02-19T17:50:21;-1.90;99.90
12384;DHT22;6256;63.808;20.336;2023-02-19T17:52:50;-1.90;99.90
12384;DHT22;6256;63.808;20.336;2023-02-19T17:55:17;-1.90;99.90
12384;DHT22;6256;63.808;20.336;2023-02-19T17:57:46;-1.90;99.90
12384;DHT22;6256;63.808;20.336;2023-02-19T18:00:21;-1.90;99.90
12384;DHT22;6256;63.808;20.336;2023-02-19T18:02:47;-1.90;99.90
12384;DHT22;6256;63.808;20.336;2023-02-19T18:05:13;-1.90;99.90
12384;DHT22;6256;63.808;20.336;2023-02-19T18:07:38;-1.90;99.90
12384;DHT22;6256;63.808;20.336;2023-02-19T18:10:05;-1.90;99.90
12384;DHT22;6256;63.808;20.336;2023-02-19T18:12:31;-1.90;99.90
12384;DHT22;6256;63.808;20.336;2023-02-19T18:14:57;-1.90;99.90
12384;DHT22;6256;63.808;20.336;2023-02-19T18:17:24;-1.90;99.90
12384;DHT22;6256;63.808;20.336;2023-02-19T18:19:50;-1.90;99.90
12384;DHT22;6256;63.808;20.336;2023-02-19T18:22:17;-1.90;99.90
12384;DHT22;6256;63.808;20.336;2023-02-19T18:25:00;-1.90;99.90